sensor_id;sensor_type;location;lat;lon;timestamp;pressure;altitude;pressure_sealevel;temperature;humidity
72855;BME280;60991;51.278;22.550;2022-07-10T00:01:22;99036.81;;;23.52;52.17
72855;BME280;60991;51.278;22.550;2022-07-10T00:02:52;99041.44;;;23.52;52.54
72855;BME280;60991;51.278;22.550;2022-07-10T00:04:23;99025.97;;;23.52;52.22
72855;BME280;60991;51.278;22.550;2022-07-10T00:05:53;99024.06;;;23.53;52.42
72855;BME280;60991;51.278;22.550;2022-07-10T00:07:23;99022.47;;;23.52;52.36
72855;BME280;60991;51.278;22.550;2022-07-10T00:08:53;99024.34;;;23.51;52.27
72855;BME280;60991;51.278;22.550;2022-07-10T00:10:24;99017.34;;;23.50;52.21
72855;BME280;60991;51.278;22.550;2022-07-10T00:11:54;99017.34;;;23.50;52.08
72855;BME280;60991;51.278;22.550;2022-07-10T00:13:25;99024.34;;;23.51;52.31
72855;BME280;60991;51.278;22.550;2022-07-10T00:14:55;99023.56;;;23.51;52.17
72855;BME280;60991;51.278;22.550;2022-07-10T00:16:26;99020.06;;;23.50;52.20
72855;BME280;60991;51.278;22.550;2022-07-10T00:17:56;99018.47;;;23.49;52.39
72855;BME280;60991;51.278;22.550;2022-07-10T00:19:26;99015.75;;;23.49;52.53
72855;BME280;60991;51.278;22.550;2022-07-10T00:20:56;99012.25;;;23.48;52.40
72855;BME280;60991;51.278;22.550;2022-07-10T00:22:27;99013.06;;;23.49;52.19
72855;BME280;60991;51.278;22.550;2022-07-10T00:23:57;99007.16;;;23.47;52.28
72855;BME280;60991;51.278;22.550;2022-07-10T00:25:28;99003.34;;;23.48;52.43
72855;BME280;60991;51.278;22.550;2022-07-10T00:26:59;99004.47;;;23.47;52.18
72855;BME280;60991;51.278;22.550;2022-07-10T00:28:29;99010.66;;;23.47;52.63
72855;BME280;60991;51.278;22.550;2022-07-10T00:29:59;99005.25;;;23.47;52.17
72855;BME280;60991;51.278;22.550;2022-07-10T00:31:30;99000.97;;;23.46;52.65
72855;BME280;60991;51.278;22.550;2022-07-10T00:33:00;99001.75;;;23.47;52.43
72855;BME280;60991;51.278;22.550;2022-07-10T00:34:30;99007.16;;;23.47;52.25
72855;BME280;60991;51.278;22.550;2022-07-10T00:36:00;99004.00;;;23.45;52.36
72855;BME280;60991;51.278;22.550;2022-07-10T00:37:31;98993.16;;;23.45;52.24
72855;BME280;60991;51.278;22.550;2022-07-10T00:39:01;98990.44;;;23.45;52.52
72855;BME280;60991;51.278;22.550;2022-07-10T00:40:31;98998.56;;;23.45;52.33
72855;BME280;60991;51.278;22.550;2022-07-10T00:42:13;98992.38;;;23.44;52.60
72855;BME280;60991;51.278;22.550;2022-07-10T00:44:00;98989.66;;;23.44;52.23
72855;BME280;60991;51.278;22.550;2022-07-10T00:45:30;98987.75;;;23.45;52.64
72855;BME280;60991;51.278;22.550;2022-07-10T00:47:02;98989.66;;;23.44;52.44
72855;BME280;60991;51.278;22.550;2022-07-10T00:48:32;98987.28;;;23.43;52.49
72855;BME280;60991;51.278;22.550;2022-07-10T00:50:03;98985.38;;;23.43;52.58
72855;BME280;60991;51.278;22.550;2022-07-10T00:51:34;98985.38;;;23.43;52.37
72855;BME280;60991;51.278;22.550;2022-07-10T00:53:04;98989.19;;;23.42;52.46
72855;BME280;60991;51.278;22.550;2022-07-10T00:54:34;98979.94;;;23.43;52.59
72855;BME280;60991;51.278;22.550;2022-07-10T00:56:06;98978.34;;;23.42;52.18
72855;BME280;60991;51.278;22.550;2022-07-10T00:57:37;98977.56;;;23.42;52.53
72855;BME280;60991;51.278;22.550;2022-07-10T00:59:09;98981.06;;;23.42;52.69
72855;BME280;60991;51.278;22.550;2022-07-10T01:00:40;98982.19;;;23.41;52.21
72855;BME280;60991;51.278;22.550;2022-07-10T01:02:11;98982.19;;;23.41;52.41
72855;BME280;60991;51.278;22.550;2022-07-10T01:03:43;98975.19;;;23.40;52.61
72855;BME280;60991;51.278;22.550;2022-07-10T01:05:14;98976.78;;;23.41;52.54
72855;BME280;60991;51.278;22.550;2022-07-10T01:06:44;98982.19;;;23.41;52.41
72855;BME280;60991;51.278;22.550;2022-07-10T01:08:15;98975.19;;;23.40;52.23
72855;BME280;60991;51.278;22.550;2022-07-10T01:09:45;98971.69;;;23.40;52.41
72855;BME280;60991;51.278;22.550;2022-07-10T01:11:15;98977.88;;;23.40;52.30
72855;BME280;60991;51.278;22.550;2022-07-10T01:12:46;98971.69;;;23.40;52.68
72855;BME280;60991;51.278;22.550;2022-07-10T01:14:17;98968.97;;;23.40;52.59
72855;BME280;60991;51.278;22.550;2022-07-10T01:15:48;98977.09;;;23.40;52.31
72855;BME280;60991;51.278;22.550;2022-07-10T01:17:18;98976.31;;;23.39;52.66
72855;BME280;60991;51.278;22.550;2022-07-10T01:18:49;98971.69;;;23.40;52.63
72855;BME280;60991;51.278;22.550;2022-07-10T01:20:19;98968.19;;;23.39;52.25
72855;BME280;60991;51.278;22.550;2022-07-10T01:21:49;98970.88;;;23.39;52.63
72855;BME280;60991;51.278;22.550;2022-07-10T01:23:20;98968.19;;;23.39;52.74
72855;BME280;60991;51.278;22.550;2022-07-10T01:24:51;98956.53;;;23.39;52.34
72855;BME280;60991;51.278;22.550;2022-07-10T01:26:22;98959.25;;;23.39;52.33
72855;BME280;60991;51.278;22.550;2022-07-10T01:27:52;98963.13;;;23.38;52.69
72855;BME280;60991;51.278;22.550;2022-07-10T01:29:22;98957.69;;;23.38;52.65
72855;BME280;60991;51.278;22.550;2022-07-10T01:30:54;98963.13;;;23.38;52.69
72855;BME280;60991;51.278;22.550;2022-07-10T01:32:25;98953.41;;;23.37;52.70
72855;BME280;60991;51.278;22.550;2022-07-10T01:33:55;98962.31;;;23.37;52.39
72855;BME280;60991;51.278;22.550;2022-07-10T01:35:26;98953.41;;;23.37;52.37
72855;BME280;60991;51.278;22.550;2022-07-10T01:36:56;98952.63;;;23.36;52.39
72855;BME280;60991;51.278;22.550;2022-07-10T01:38:26;98955.31;;;23.36;52.34
72855;BME280;60991;51.278;22.550;2022-07-10T01:39:57;98952.63;;;23.36;52.55
72855;BME280;60991;51.278;22.550;2022-07-10T01:41:27;98952.63;;;23.36;52.64
72855;BME280;60991;51.278;22.550;2022-07-10T01:42:58;98945.59;;;23.35;52.69
72855;BME280;60991;51.278;22.550;2022-07-10T01:44:28;98950.22;;;23.35;52.60
72855;BME280;60991;51.278;22.550;2022-07-10T01:45:58;98948.31;;;23.35;52.62
72855;BME280;60991;51.278;22.550;2022-07-10T01:47:28;98941.31;;;23.34;52.44
72855;BME280;60991;51.278;22.550;2022-07-10T01:48:59;98951.03;;;23.35;52.47
72855;BME280;60991;51.278;22.550;2022-07-10T01:50:29;98950.22;;;23.35;52.76
72855;BME280;60991;51.278;22.550;2022-07-10T01:51:59;98947.53;;;23.35;52.73
72855;BME280;60991;51.278;22.550;2022-07-10T01:53:30;98944.03;;;23.34;52.40
72855;BME280;60991;51.278;22.550;2022-07-10T01:55:00;98943.22;;;23.34;52.49
72855;BME280;60991;51.278;22.550;2022-07-10T01:56:31;98940.53;;;23.34;52.35
72855;BME280;60991;51.278;22.550;2022-07-10T01:58:01;98937.03;;;23.33;52.41
72855;BME280;60991;51.278;22.550;2022-07-10T01:59:31;98942.44;;;23.33;52.71
72855;BME280;60991;51.278;22.550;2022-07-10T02:01:03;98931.94;;;23.32;52.77
72855;BME280;60991;51.278;22.550;2022-07-10T02:02:33;98930.00;;;23.32;52.41
72855;BME280;60991;51.278;22.550;2022-07-10T02:04:04;98928.91;;;23.33;52.43
72855;BME280;60991;51.278;22.550;2022-07-10T02:05:34;98929.22;;;23.32;52.75
72855;BME280;60991;51.278;22.550;2022-07-10T02:07:04;98925.41;;;23.33;52.39
72855;BME280;60991;51.278;22.550;2022-07-10T02:08:35;98921.91;;;23.32;52.49
72855;BME280;60991;51.278;22.550;2022-07-10T02:10:05;98917.59;;;23.31;52.52
72855;BME280;60991;51.278;22.550;2022-07-10T02:11:36;98929.22;;;23.32;52.65
72855;BME280;60991;51.278;22.550;2022-07-10T02:13:06;98921.09;;;23.32;52.65
72855;BME280;60991;51.278;22.550;2022-07-10T02:14:37;98913.75;;;23.32;52.65
72855;BME280;60991;51.278;22.550;2022-07-10T02:16:07;98916.47;;;23.32;52.36
72855;BME280;60991;51.278;22.550;2022-07-10T02:17:37;98915.69;;;23.32;52.74
72855;BME280;60991;51.278;22.550;2022-07-10T02:19:09;98917.59;;;23.31;52.75
72855;BME280;60991;51.278;22.550;2022-07-10T02:20:39;98916.00;;;23.30;52.43
72855;BME280;60991;51.278;22.550;2022-07-10T02:22:10;98912.19;;;23.31;52.52
72855;BME280;60991;51.278;22.550;2022-07-10T02:23:40;98911.38;;;23.31;52.62
72855;BME280;60991;51.278;22.550;2022-07-10T02:25:10;98914.09;;;23.31;52.61
72855;BME280;60991;51.278;22.550;2022-07-10T02:26:41;98913.31;;;23.30;52.67
72855;BME280;60991;51.278;22.550;2022-07-10T02:28:11;98912.50;;;23.30;52.66
72855;BME280;60991;51.278;22.550;2022-07-10T02:29:41;98911.72;;;23.29;52.58
72855;BME280;60991;51.278;22.550;2022-07-10T02:31:12;98910.94;;;23.29;52.69
72855;BME280;60991;51.278;22.550;2022-07-10T02:32:42;98910.94;;;23.29;52.69
72855;BME280;60991;51.278;22.550;2022-07-10T02:34:13;98917.13;;;23.29;52.80
72855;BME280;60991;51.278;22.550;2022-07-10T02:35:43;98914.75;;;23.28;52.67
72855;BME280;60991;51.278;22.550;2022-07-10T02:37:13;98921.75;;;23.29;52.43
72855;BME280;60991;51.278;22.550;2022-07-10T02:38:43;98920.97;;;23.28;52.76
72855;BME280;60991;51.278;22.550;2022-07-10T02:40:14;98920.19;;;23.28;52.53
72855;BME280;60991;51.278;22.550;2022-07-10T02:41:44;98929.88;;;23.29;52.79
72855;BME280;60991;51.278;22.550;2022-07-10T02:43:14;98920.19;;;23.28;52.58
72855;BME280;60991;51.278;22.550;2022-07-10T02:44:45;98920.19;;;23.28;52.60
72855;BME280;60991;51.278;22.550;2022-07-10T02:46:15;98918.25;;;23.28;52.87
72855;BME280;60991;51.278;22.550;2022-07-10T02:47:45;98914.75;;;23.28;52.78
72855;BME280;60991;51.278;22.550;2022-07-10T02:49:16;98911.25;;;23.27;52.59
72855;BME280;60991;51.278;22.550;2022-07-10T02:50:46;98914.75;;;23.28;52.80
72855;BME280;60991;51.278;22.550;2022-07-10T02:52:16;98917.47;;;23.28;52.58
72855;BME280;60991;51.278;22.550;2022-07-10T02:53:46;98920.19;;;23.28;52.44
72855;BME280;60991;51.278;22.550;2022-07-10T02:55:17;98913.97;;;23.27;52.47
72855;BME280;60991;51.278;22.550;2022-07-10T02:56:47;98917.47;;;23.28;52.78
72855;BME280;60991;51.278;22.550;2022-07-10T02:58:17;98916.66;;;23.27;52.58
72855;BME280;60991;51.278;22.550;2022-07-10T02:59:48;98909.66;;;23.26;52.47
72855;BME280;60991;51.278;22.550;2022-07-10T03:01:18;98915.09;;;23.26;52.74
72855;BME280;60991;51.278;22.550;2022-07-10T03:02:48;98913.16;;;23.27;52.57
72855;BME280;60991;51.278;22.550;2022-07-10T03:04:19;98915.09;;;23.26;52.53
72855;BME280;60991;51.278;22.550;2022-07-10T03:05:49;98915.09;;;23.26;52.57
72855;BME280;60991;51.278;22.550;2022-07-10T03:07:19;98920.50;;;23.26;52.89
72855;BME280;60991;51.278;22.550;2022-07-10T03:08:50;98926.25;;;23.25;52.89
72855;BME280;60991;51.278;22.550;2022-07-10T03:10:20;98915.41;;;23.25;52.59
72855;BME280;60991;51.278;22.550;2022-07-10T03:11:51;98922.41;;;23.26;52.79
72855;BME280;60991;51.278;22.550;2022-07-10T03:13:21;98918.91;;;23.25;52.58
72855;BME280;60991;51.278;22.550;2022-07-10T03:14:52;98910.78;;;23.25;52.77
72855;BME280;60991;51.278;22.550;2022-07-10T03:16:22;98918.13;;;23.25;52.68
72855;BME280;60991;51.278;22.550;2022-07-10T03:17:52;98915.41;;;23.25;52.48
72855;BME280;60991;51.278;22.550;2022-07-10T03:19:23;98912.72;;;23.25;52.84
72855;BME280;60991;51.278;22.550;2022-07-10T03:20:53;98914.63;;;23.24;52.45
72855;BME280;60991;51.278;22.550;2022-07-10T03:22:23;98916.53;;;23.24;52.81
72855;BME280;60991;51.278;22.550;2022-07-10T03:23:53;98917.34;;;23.24;52.57
72855;BME280;60991;51.278;22.550;2022-07-10T03:25:24;98909.22;;;23.24;52.66
72855;BME280;60991;51.278;22.550;2022-07-10T03:26:54;98910.78;;;23.25;52.77
72855;BME280;60991;51.278;22.550;2022-07-10T03:28:24;98910.34;;;23.23;52.89
72855;BME280;60991;51.278;22.550;2022-07-10T03:29:54;98903.78;;;23.24;52.64
72855;BME280;60991;51.278;22.550;2022-07-10T03:31:25;98913.03;;;23.23;52.83
72855;BME280;60991;51.278;22.550;2022-07-10T03:32:55;98911.13;;;23.24;52.70
72855;BME280;60991;51.278;22.550;2022-07-10T03:34:25;98904.13;;;23.23;52.93
72855;BME280;60991;51.278;22.550;2022-07-10T03:35:56;98909.53;;;23.23;52.59
72855;BME280;60991;51.278;22.550;2022-07-10T03:37:26;98906.03;;;23.22;52.91
72855;BME280;60991;51.278;22.550;2022-07-10T03:38:56;98914.16;;;23.22;52.84
72855;BME280;60991;51.278;22.550;2022-07-10T03:40:27;98912.25;;;23.23;52.62
72855;BME280;60991;51.278;22.550;2022-07-10T03:41:57;98906.03;;;23.22;52.95
72855;BME280;60991;51.278;22.550;2022-07-10T03:43:28;98910.66;;;23.22;52.67
72855;BME280;60991;51.278;22.550;2022-07-10T03:44:58;98916.06;;;23.22;53.01
72855;BME280;60991;51.278;22.550;2022-07-10T03:46:28;98916.06;;;23.22;52.59
72855;BME280;60991;51.278;22.550;2022-07-10T03:47:58;98911.78;;;23.21;52.81
72855;BME280;60991;51.278;22.550;2022-07-10T03:49:29;98917.19;;;23.21;52.61
72855;BME280;60991;51.278;22.550;2022-07-10T03:51:00;98914.50;;;23.21;52.78
72855;BME280;60991;51.278;22.550;2022-07-10T03:52:30;98915.63;;;23.20;52.57
72855;BME280;60991;51.278;22.550;2022-07-10T03:54:00;98913.69;;;23.20;53.03
72855;BME280;60991;51.278;22.550;2022-07-10T03:55:31;98913.69;;;23.20;52.75
72855;BME280;60991;51.278;22.550;2022-07-10T03:57:01;98915.63;;;23.20;52.65
72855;BME280;60991;51.278;22.550;2022-07-10T03:58:31;98905.94;;;23.19;52.90
72855;BME280;60991;51.278;22.550;2022-07-10T04:00:03;98912.13;;;23.19;52.72
72855;BME280;60991;51.278;22.550;2022-07-10T04:01:33;98912.13;;;23.19;52.61
72855;BME280;60991;51.278;22.550;2022-07-10T04:03:05;98907.84;;;23.18;52.99
72855;BME280;60991;51.278;22.550;2022-07-10T04:04:36;98909.44;;;23.19;52.72
72855;BME280;60991;51.278;22.550;2022-07-10T04:06:06;98910.19;;;23.20;52.68
72855;BME280;60991;51.278;22.550;2022-07-10T04:07:37;98918.31;;;23.20;52.56
72855;BME280;60991;51.278;22.550;2022-07-10T04:09:07;98909.44;;;23.19;53.08
72855;BME280;60991;51.278;22.550;2022-07-10T04:10:38;98911.34;;;23.19;52.49
72855;BME280;60991;51.278;22.550;2022-07-10T04:12:08;98907.06;;;23.18;52.90
72855;BME280;60991;51.278;22.550;2022-07-10T04:13:38;98908.97;;;23.17;52.91
72855;BME280;60991;51.278;22.550;2022-07-10T04:15:09;98909.75;;;23.18;53.00
72855;BME280;60991;51.278;22.550;2022-07-10T04:16:39;98898.94;;;23.18;53.06
72855;BME280;60991;51.278;22.550;2022-07-10T04:18:09;98903.56;;;23.17;52.92
72855;BME280;60991;51.278;22.550;2022-07-10T04:19:39;98903.56;;;23.17;52.96
72855;BME280;60991;51.278;22.550;2022-07-10T04:21:10;98901.63;;;23.18;52.68
72855;BME280;60991;51.278;22.550;2022-07-10T04:22:40;98898.13;;;23.17;52.86
72855;BME280;60991;51.278;22.550;2022-07-10T04:24:11;98907.06;;;23.18;52.78
72855;BME280;60991;51.278;22.550;2022-07-10T04:25:41;98903.56;;;23.17;53.10
72855;BME280;60991;51.278;22.550;2022-07-10T04:27:11;98898.94;;;23.18;52.61
72855;BME280;60991;51.278;22.550;2022-07-10T04:28:41;98901.97;;;23.16;52.98
72855;BME280;60991;51.278;22.550;2022-07-10T04:30:12;98896.56;;;23.16;52.71
72855;BME280;60991;51.278;22.550;2022-07-10T04:31:42;98896.56;;;23.16;52.68
72855;BME280;60991;51.278;22.550;2022-07-10T04:33:12;98897.34;;;23.17;52.93
72855;BME280;60991;51.278;22.550;2022-07-10T04:34:43;98892.72;;;23.17;52.95
72855;BME280;60991;51.278;22.550;2022-07-10T04:36:13;98887.63;;;23.16;52.59
72855;BME280;60991;51.278;22.550;2022-07-10T04:37:43;98890.34;;;23.16;52.89
72855;BME280;60991;51.278;22.550;2022-07-10T04:39:14;98893.84;;;23.16;52.73
72855;BME280;60991;51.278;22.550;2022-07-10T04:40:44;98891.13;;;23.16;53.04
72855;BME280;60991;51.278;22.550;2022-07-10T04:42:14;98890.34;;;23.16;52.86
72855;BME280;60991;51.278;22.550;2022-07-10T04:43:45;98888.75;;;23.14;52.99
72855;BME280;60991;51.278;22.550;2022-07-10T04:45:15;98887.63;;;23.16;53.05
72855;BME280;60991;51.278;22.550;2022-07-10T04:46:45;98886.06;;;23.14;53.08
72855;BME280;60991;51.278;22.550;2022-07-10T04:48:16;98885.25;;;23.14;52.65
72855;BME280;60991;51.278;22.550;2022-07-10T04:49:46;98887.16;;;23.13;52.96
72855;BME280;60991;51.278;22.550;2022-07-10T04:51:17;98876.34;;;23.13;52.63
72855;BME280;60991;51.278;22.550;2022-07-10T04:52:47;98879.84;;;23.14;52.60
72855;BME280;60991;51.278;22.550;2022-07-10T04:54:18;98880.63;;;23.14;53.16
72855;BME280;60991;51.278;22.550;2022-07-10T04:55:48;98876.34;;;23.13;53.02
72855;BME280;60991;51.278;22.550;2022-07-10T04:57:18;98872.50;;;23.14;52.94
72855;BME280;60991;51.278;22.550;2022-07-10T04:58:49;98877.13;;;23.14;52.91
72855;BME280;60991;51.278;22.550;2022-07-10T05:00:19;98876.34;;;23.13;52.95
72855;BME280;60991;51.278;22.550;2022-07-10T05:01:49;98870.94;;;23.13;52.88
72855;BME280;60991;51.278;22.550;2022-07-10T05:03:20;98873.63;;;23.13;52.55
72855;BME280;60991;51.278;22.550;2022-07-10T05:04:50;98869.34;;;23.12;52.66
72855;BME280;60991;51.278;22.550;2022-07-10T05:06:20;98873.97;;;23.12;52.89
72855;BME280;60991;51.278;22.550;2022-07-10T05:07:51;98872.50;;;23.14;52.99
72855;BME280;60991;51.278;22.550;2022-07-10T05:09:21;98873.63;;;23.13;52.72
72855;BME280;60991;51.278;22.550;2022-07-10T05:10:51;98866.63;;;23.12;53.22
72855;BME280;60991;51.278;22.550;2022-07-10T05:12:21;98863.94;;;23.12;52.66
72855;BME280;60991;51.278;22.550;2022-07-10T05:13:52;98869.34;;;23.12;53.06
72855;BME280;60991;51.278;22.550;2022-07-10T05:15:22;98862.00;;;23.13;53.01
72855;BME280;60991;51.278;22.550;2022-07-10T05:16:53;98865.84;;;23.12;52.92
72855;BME280;60991;51.278;22.550;2022-07-10T05:18:23;98864.72;;;23.13;52.67
72855;BME280;60991;51.278;22.550;2022-07-10T05:19:54;98864.72;;;23.13;52.74
72855;BME280;60991;51.278;22.550;2022-07-10T05:21:24;98858.50;;;23.12;52.86
72855;BME280;60991;51.278;22.550;2022-07-10T05:22:55;98860.44;;;23.12;52.77
72855;BME280;60991;51.278;22.550;2022-07-10T05:24:25;98854.22;;;23.11;52.64
72855;BME280;60991;51.278;22.550;2022-07-10T05:25:55;98850.38;;;23.12;52.76
72855;BME280;60991;51.278;22.550;2022-07-10T05:27:26;98855.81;;;23.12;52.77
72855;BME280;60991;51.278;22.550;2022-07-10T05:28:56;98855.81;;;23.12;52.75
72855;BME280;60991;51.278;22.550;2022-07-10T05:30:26;98856.13;;;23.11;53.04
72855;BME280;60991;51.278;22.550;2022-07-10T05:31:57;98852.31;;;23.12;52.92
72855;BME280;60991;51.278;22.550;2022-07-10T05:33:27;98858.84;;;23.11;52.68
72855;BME280;60991;51.278;22.550;2022-07-10T05:34:58;98855.00;;;23.12;53.05
72855;BME280;60991;51.278;22.550;2022-07-10T05:36:28;98849.94;;;23.10;53.11
72855;BME280;60991;51.278;22.550;2022-07-10T05:37:59;98860.44;;;23.12;52.63
72855;BME280;60991;51.278;22.550;2022-07-10T05:39:29;98856.13;;;23.11;53.21
72855;BME280;60991;51.278;22.550;2022-07-10T05:40:59;98855.00;;;23.12;52.84
72855;BME280;60991;51.278;22.550;2022-07-10T05:42:29;98853.44;;;23.11;53.17
72855;BME280;60991;51.278;22.550;2022-07-10T05:44:00;98858.84;;;23.11;53.21
72855;BME280;60991;51.278;22.550;2022-07-10T05:45:30;98856.13;;;23.11;52.88
72855;BME280;60991;51.278;22.550;2022-07-10T05:47:00;98862.34;;;23.11;52.87
72855;BME280;60991;51.278;22.550;2022-07-10T05:48:31;98853.44;;;23.11;52.95
72855;BME280;60991;51.278;22.550;2022-07-10T05:50:01;98856.94;;;23.11;53.14
72855;BME280;60991;51.278;22.550;2022-07-10T05:51:32;98855.00;;;23.12;52.88
72855;BME280;60991;51.278;22.550;2022-07-10T05:53:02;98857.72;;;23.12;52.75
72855;BME280;60991;51.278;22.550;2022-07-10T05:54:32;98856.94;;;23.11;52.82
72855;BME280;60991;51.278;22.550;2022-07-10T05:56:03;98853.44;;;23.11;52.75
72855;BME280;60991;51.278;22.550;2022-07-10T05:57:34;98851.50;;;23.11;53.16
72855;BME280;60991;51.278;22.550;2022-07-10T05:59:04;98853.09;;;23.12;53.16
72855;BME280;60991;51.278;22.550;2022-07-10T06:00:34;98855.00;;;23.12;52.87
72855;BME280;60991;51.278;22.550;2022-07-10T06:02:04;98853.09;;;23.12;53.07
72855;BME280;60991;51.278;22.550;2022-07-10T06:03:35;98852.31;;;23.12;53.15
72855;BME280;60991;51.278;22.550;2022-07-10T06:05:06;98858.50;;;23.12;52.85
72855;BME280;60991;51.278;22.550;2022-07-10T06:06:36;98856.94;;;23.11;53.15
72855;BME280;60991;51.278;22.550;2022-07-10T06:08:06;98857.72;;;23.12;52.86
72855;BME280;60991;51.278;22.550;2022-07-10T06:09:37;98856.59;;;23.13;52.70
72855;BME280;60991;51.278;22.550;2022-07-10T06:11:07;98865.50;;;23.13;52.68
72855;BME280;60991;51.278;22.550;2022-07-10T06:12:37;98865.50;;;23.13;53.12
72855;BME280;60991;51.278;22.550;2022-07-10T06:14:08;98857.38;;;23.13;53.04
72855;BME280;60991;51.278;22.550;2022-07-10T06:15:38;98858.97;;;23.14;52.79
72855;BME280;60991;51.278;22.550;2022-07-10T06:17:08;98860.09;;;23.13;52.65
72855;BME280;60991;51.278;22.550;2022-07-10T06:18:39;98861.69;;;23.14;52.91
72855;BME280;60991;51.278;22.550;2022-07-10T06:20:10;98865.19;;;23.15;52.69
72855;BME280;60991;51.278;22.550;2022-07-10T06:21:40;98864.38;;;23.14;52.64
72855;BME280;60991;51.278;22.550;2022-07-10T06:23:10;98867.09;;;23.14;52.87
72855;BME280;60991;51.278;22.550;2022-07-10T06:24:41;98859.75;;;23.15;52.82
72855;BME280;60991;51.278;22.550;2022-07-10T06:26:11;98865.19;;;23.15;53.02
72855;BME280;60991;51.278;22.550;2022-07-10T06:27:41;98852.75;;;23.14;53.12
72855;BME280;60991;51.278;22.550;2022-07-10T06:29:12;98858.19;;;23.14;53.07
72855;BME280;60991;51.278;22.550;2022-07-10T06:30:42;98862.47;;;23.15;52.97
72855;BME280;60991;51.278;22.550;2022-07-10T06:32:12;98865.19;;;23.15;52.69
72855;BME280;60991;51.278;22.550;2022-07-10T06:33:43;98859.75;;;23.15;52.60
72855;BME280;60991;51.278;22.550;2022-07-10T06:35:13;98865.19;;;23.15;53.04
72855;BME280;60991;51.278;22.550;2022-07-10T06:36:43;98864.06;;;23.16;53.12
72855;BME280;60991;51.278;22.550;2022-07-10T06:38:14;98859.75;;;23.15;53.09
72855;BME280;60991;51.278;22.550;2022-07-10T06:39:45;98859.75;;;23.15;52.80
72855;BME280;60991;51.278;22.550;2022-07-10T06:41:16;98856.25;;;23.14;52.64
72855;BME280;60991;51.278;22.550;2022-07-10T06:42:46;98851.66;;;23.15;52.62
72855;BME280;60991;51.278;22.550;2022-07-10T06:44:16;98855.13;;;23.16;53.02
72855;BME280;60991;51.278;22.550;2022-07-10T06:45:47;98857.06;;;23.15;53.13
72855;BME280;60991;51.278;22.550;2022-07-10T06:47:18;98857.84;;;23.16;53.04
72855;BME280;60991;51.278;22.550;2022-07-10T06:48:49;98862.47;;;23.15;52.86
72855;BME280;60991;51.278;22.550;2022-07-10T06:50:19;98857.84;;;23.16;52.72
72855;BME280;60991;51.278;22.550;2022-07-10T06:51:50;98856.72;;;23.17;52.67
72855;BME280;60991;51.278;22.550;2022-07-10T06:53:20;98849.72;;;23.16;53.12
72855;BME280;60991;51.278;22.550;2022-07-10T06:54:52;98853.22;;;23.16;52.92
72855;BME280;60991;51.278;22.550;2022-07-10T06:56:22;98855.59;;;23.18;53.09
72855;BME280;60991;51.278;22.550;2022-07-10T06:57:53;98854.00;;;23.17;52.92
72855;BME280;60991;51.278;22.550;2022-07-10T06:59:24;98850.53;;;23.16;52.61
72855;BME280;60991;51.278;22.550;2022-07-10T07:00:54;98852.09;;;23.17;53.02
72855;BME280;60991;51.278;22.550;2022-07-10T07:02:24;98849.41;;;23.17;52.85
72855;BME280;60991;51.278;22.550;2022-07-10T07:03:55;98851.31;;;23.17;52.75
72855;BME280;60991;51.278;22.550;2022-07-10T07:05:25;98845.09;;;23.16;53.14
72855;BME280;60991;51.278;22.550;2022-07-10T07:06:55;98840.47;;;23.17;52.70
72855;BME280;60991;51.278;22.550;2022-07-10T07:08:26;98841.28;;;23.17;53.09
72855;BME280;60991;51.278;22.550;2022-07-10T07:09:58;98847.81;;;23.16;53.13
72855;BME280;60991;51.278;22.550;2022-07-10T07:11:29;98844.78;;;23.18;52.69
72855;BME280;60991;51.278;22.550;2022-07-10T07:12:59;98842.84;;;23.18;52.74
72855;BME280;60991;51.278;22.550;2022-07-10T07:14:29;98846.34;;;23.19;53.06
72855;BME280;60991;51.278;22.550;2022-07-10T07:15:59;98846.34;;;23.19;52.66
72855;BME280;60991;51.278;22.550;2022-07-10T07:17:30;98851.78;;;23.19;53.05
72855;BME280;60991;51.278;22.550;2022-07-10T07:19:00;98851.41;;;23.20;53.05
72855;BME280;60991;51.278;22.550;2022-07-10T07:20:30;98851.41;;;23.20;52.93
72855;BME280;60991;51.278;22.550;2022-07-10T07:22:01;98847.91;;;23.20;53.08
72855;BME280;60991;51.278;22.550;2022-07-10T07:23:31;98849.50;;;23.21;52.61
72855;BME280;60991;51.278;22.550;2022-07-10T07:25:01;98845.19;;;23.20;52.82
72855;BME280;60991;51.278;22.550;2022-07-10T07:26:32;98847.56;;;23.21;52.52
72855;BME280;60991;51.278;22.550;2022-07-10T07:28:03;98848.38;;;23.22;52.64
72855;BME280;60991;51.278;22.550;2022-07-10T07:29:33;98838.66;;;23.21;52.93
72855;BME280;60991;51.278;22.550;2022-07-10T07:31:03;98850.28;;;23.21;52.63
72855;BME280;60991;51.278;22.550;2022-07-10T07:32:34;98849.50;;;23.21;52.65
72855;BME280;60991;51.278;22.550;2022-07-10T07:34:04;98853.78;;;23.22;52.91
72855;BME280;60991;51.278;22.550;2022-07-10T07:35:34;98846.47;;;23.22;52.98
72855;BME280;60991;51.278;22.550;2022-07-10T07:37:05;98855.38;;;23.23;52.60
72855;BME280;60991;51.278;22.550;2022-07-10T07:38:35;98845.34;;;23.23;52.52
72855;BME280;60991;51.278;22.550;2022-07-10T07:40:07;98850.41;;;23.25;52.78
72855;BME280;60991;51.278;22.550;2022-07-10T07:41:38;98846.91;;;23.24;52.91
72855;BME280;60991;51.278;22.550;2022-07-10T07:43:08;98848.50;;;23.25;52.79
72855;BME280;60991;51.278;22.550;2022-07-10T07:44:38;98851.22;;;23.25;52.73
72855;BME280;60991;51.278;22.550;2022-07-10T07:46:09;98841.16;;;23.26;52.94
72855;BME280;60991;51.278;22.550;2022-07-10T07:47:53;98850.09;;;23.26;52.69
72855;BME280;60991;51.278;22.550;2022-07-10T07:49:23;98844.66;;;23.26;52.83
72855;BME280;60991;51.278;22.550;2022-07-10T07:50:53;98842.75;;;23.27;52.63
72855;BME280;60991;51.278;22.550;2022-07-10T07:52:24;98840.84;;;23.27;52.45
72855;BME280;60991;51.278;22.550;2022-07-10T07:53:54;98838.13;;;23.27;52.77